Time;durP1;ratioP1;P1;durP2;ratioP2;P2;SDS_P1;SDS_P2;PMS_P1;PMS_P2;Temp;Humidity;BMP_temperature;BMP_pressure;BME280_temperature;BME280_humidity;BME280_pressure;Samples;Min_cycle;Max_cycle;Signal;HPM_P1;HPM_P2
2023/03/28 00:00:07;;;;;;;10.50;9.98;;;;;;;;;;5112573;28;20505;-69
2023/03/28 00:02:32;;;;;;;10.27;9.77;;;;;;;;;;5103469;28;20112;-70
2023/03/28 00:04:58;;;;;;;10.25;9.75;;;;;;;;;;5110695;28;20106;-69
2023/03/28 00:07:26;;;;;;;10.00;9.50;;;;;;;;;;5113664;28;20023;-69
2023/03/28 00:09:51;;;;;;;9.85;9.35;;;;;;;;;;5109650;28;20016;-69
2023/03/28 00:12:17;;;;;;;10.38;9.88;;;;;;;;;;5113284;28;20497;-69
2023/03/28 00:14:42;;;;;;;10.05;9.55;;;;;;;;;;5113508;28;20020;-69
2023/03/28 00:17:07;;;;;;;10.35;9.85;;;;;;;;;;5114968;28;20073;-69
2023/03/28 00:19:33;;;;;;;10.52;10.02;;;;;;;;;;5115783;28;20012;-69
2023/03/28 00:21:58;;;;;;;10.27;9.77;;;;;;;;;;5111896;28;20016;-69
2023/03/28 00:24:24;;;;;;;10.32;9.82;;;;;;;;;;5113180;28;20765;-69
2023/03/28 00:26:53;;;;;;;10.73;10.13;;;;;;;;;;5103724;28;20016;-69
2023/03/28 00:29:19;;;;;;;10.40;9.90;;;;;;;;;;5112667;28;20115;-69
2023/03/28 00:31:45;;;;;;;10.07;9.57;;;;;;;;;;5112715;28;20069;-69
2023/03/28 00:34:11;;;;;;;10.80;10.20;;;;;;;;;;5112852;28;20020;-69
2023/03/28 00:36:38;;;;;;;10.27;9.77;;;;;;;;;;5094540;28;20462;-69
2023/03/28 00:39:05;;;;;;;11.05;10.45;;;;;;;;;;5111874;28;20016;-69
2023/03/28 00:41:31;;;;;;;10.35;9.85;;;;;;;;;;5112697;28;20019;-69
2023/03/28 00:43:57;;;;;;;9.80;9.30;;;;;;;;;;5112659;28;20016;-70
2023/03/28 00:46:37;;;;;;;10.38;9.88;;;;;;;;;;5126496;27;20030;-69
2023/03/28 00:49:11;;;;;;;10.10;9.60;;;;;;;;;;5111309;28;20087;-69
2023/03/28 00:51:37;;;;;;;10.32;9.77;;;;;;;;;;5112389;28;20501;-69
2023/03/28 00:54:03;;;;;;;10.80;10.20;;;;;;;;;;5110974;27;20032;-69
2023/03/28 00:56:31;;;;;;;10.02;9.52;;;;;;;;;;5105164;28;20023;-69
2023/03/28 00:58:57;;;;;;;9.88;9.38;;;;;;;;;;5112147;28;20794;-69
2023/03/28 01:01:22;;;;;;;10.00;9.50;;;;;;;;;;5112328;28;20043;-68
2023/03/28 01:03:55;;;;;;;9.90;9.40;;;;;;;;;;5079468;28;20092;-69
2023/03/28 01:06:21;;;;;;;9.90;9.40;;;;;;;;;;5112465;28;20027;-69
2023/03/28 01:08:47;;;;;;;9.80;9.30;;;;;;;;;;5112166;28;20107;-69
2023/03/28 01:11:14;;;;;;;10.27;9.77;;;;;;;;;;5111667;28;20496;-69
2023/03/28 01:13:42;;;;;;;9.95;9.45;;;;;;;;;;5110747;28;20050;-68
2023/03/28 01:16:07;;;;;;;9.85;9.35;;;;;;;;;;5093840;28;20008;-70
2023/03/28 01:18:34;;;;;;;9.73;9.23;;;;;;;;;;5099307;28;20543;-69
2023/03/28 01:21:16;;;;;;;9.60;9.10;;;;;;;;;;5111902;28;20536;-69
2023/03/28 01:24:01;;;;;;;9.90;9.40;;;;;;;;;;5111890;28;20046;-69
2023/03/28 01:26:50;;;;;;;10.00;9.50;;;;;;;;;;5105173;28;20115;-68
2023/03/28 01:29:39;;;;;;;9.90;9.40;;;;;;;;;;5093455;28;20068;-69
2023/03/28 01:32:23;;;;;;;9.90;9.40;;;;;;;;;;5088891;28;20039;-69
2023/03/28 01:34:51;;;;;;;9.85;9.35;;;;;;;;;;5111913;28;20084;-69
2023/03/28 01:37:22;;;;;;;9.85;9.35;;;;;;;;;;5111817;28;20016;-68
2023/03/28 01:40:06;;;;;;;9.98;9.48;;;;;;;;;;5111449;28;20030;-69
2023/03/28 01:42:37;;;;;;;9.40;8.90;;;;;;;;;;5093568;28;20015;-70
2023/03/28 01:45:09;;;;;;;10.00;9.50;;;;;;;;;;5111486;28;20028;-68
2023/03/28 01:47:37;;;;;;;10.20;9.68;;;;;;;;;;5110796;28;20029;-69
2023/03/28 01:50:24;;;;;;;10.40;9.80;;;;;;;;;;5097732;28;20477;-68
2023/03/28 01:53:09;;;;;;;9.50;9.00;;;;;;;;;;5116261;27;20019;-68
2023/03/28 01:55:37;;;;;;;10.27;9.68;;;;;;;;;;5092812;28;20493;-69
2023/03/28 01:58:06;;;;;;;9.63;9.13;;;;;;;;;;5111148;28;20387;-70
2023/03/28 02:00:42;;;;;;;10.30;9.70;;;;;;;;;;5101817;28;20065;-69
2023/03/28 02:03:17;;;;;;;9.80;9.30;;;;;;;;;;5106832;28;20022;-69
2023/03/28 02:05:43;;;;;;;10.13;9.63;;;;;;;;;;5110486;28;20077;-69
2023/03/28 02:08:09;;;;;;;10.52;9.93;;;;;;;;;;5111389;28;20020;-69
2023/03/28 02:10:36;;;;;;;9.70;9.20;;;;;;;;;;5111110;28;20539;-70
2023/03/28 02:13:16;;;;;;;10.63;10.02;;;;;;;;;;5110983;28;20042;-68
2023/03/28 02:15:44;;;;;;;10.43;9.85;;;;;;;;;;5111465;28;20110;-69
2023/03/28 02:18:13;;;;;;;10.77;10.18;;;;;;;;;;5092535;28;20031;-68
2023/03/28 02:20:40;;;;;;;10.80;10.20;;;;;;;;;;5110416;28;20470;-69
2023/03/28 02:23:06;;;;;;;10.52;9.93;;;;;;;;;;5111534;28;20023;-71
2023/03/28 02:25:31;;;;;;;10.10;9.60;;;;;;;;;;5097578;28;20496;-68
2023/03/28 02:28:00;;;;;;;9.63;9.13;;;;;;;;;;5115271;28;20019;-68
2023/03/28 02:30:26;;;;;;;10.10;9.60;;;;;;;;;;5115062;28;20019;-69
2023/03/28 02:32:51;;;;;;;10.13;9.60;;;;;;;;;;5114768;28;20019;-70
2023/03/28 02:35:21;;;;;;;10.27;9.68;;;;;;;;;;5114792;28;20020;-70
2023/03/28 02:37:59;;;;;;;10.38;9.77;;;;;;;;;;5113970;28;20360;-68
2023/03/28 02:40:27;;;;;;;9.90;9.40;;;;;;;;;;5115092;28;20474;-68
2023/03/28 02:42:52;;;;;;;9.70;9.20;;;;;;;;;;5114839;28;20106;-68
2023/03/28 02:45:30;;;;;;;10.13;9.57;;;;;;;;;;5115062;28;20090;-68
2023/03/28 02:48:14;;;;;;;9.98;9.48;;;;;;;;;;5109520;28;20023;-68
2023/03/28 02:50:39;;;;;;;10.00;9.50;;;;;;;;;;5109254;28;20435;-68
2023/03/28 02:53:16;;;;;;;10.00;9.50;;;;;;;;;;5115599;27;20024;-69
2023/03/28 02:55:53;;;;;;;9.85;9.35;;;;;;;;;;5117160;28;20065;-69
2023/03/28 02:58:21;;;;;;;10.15;9.63;;;;;;;;;;5114581;28;20062;-69
2023/03/28 03:00:47;;;;;;;10.13;9.63;;;;;;;;;;5102913;28;20013;-69
2023/03/28 03:03:12;;;;;;;10.70;10.10;;;;;;;;;;5101307;28;20080;-68
2023/03/28 03:05:38;;;;;;;10.55;9.95;;;;;;;;;;5114174;27;20110;-70
2023/03/28 03:08:05;;;;;;;9.90;9.40;;;;;;;;;;5114335;27;20440;-70
2023/03/28 03:10:30;;;;;;;9.80;9.30;;;;;;;;;;5096228;28;20042;-69
2023/03/28 03:12:55;;;;;;;9.40;8.93;;;;;;;;;;5101575;28;20471;-69
2023/03/28 03:15:21;;;;;;;9.70;9.20;;;;;;;;;;5113533;28;20046;-69
2023/03/28 03:17:46;;;;;;;10.02;9.52;;;;;;;;;;5114526;28;20027;-69
2023/03/28 03:20:12;;;;;;;10.45;9.85;;;;;;;;;;5107149;28;20035;-70
2023/03/28 03:22:37;;;;;;;9.90;9.40;;;;;;;;;;5114452;28;20035;-69
2023/03/28 03:25:06;;;;;;;10.43;9.85;;;;;;;;;;5114432;27;20020;-69
2023/03/28 03:27:32;;;;;;;10.00;9.50;;;;;;;;;;5114343;28;20093;-69
2023/03/28 03:29:58;;;;;;;10.18;9.68;;;;;;;;;;5113400;28;20086;-69
2023/03/28 03:32:24;;;;;;;9.82;9.32;;;;;;;;;;5113956;28;20476;-69
2023/03/28 03:34:50;;;;;;;10.82;10.23;;;;;;;;;;5101026;28;20112;-69
2023/03/28 03:37:16;;;;;;;10.00;9.50;;;;;;;;;;5113978;28;20012;-69
2023/03/28 03:39:45;;;;;;;9.27;8.88;;;;;;;;;;5095954;27;20425;-70
2023/03/28 03:42:10;;;;;;;10.20;9.70;;;;;;;;;;5104051;28;20051;-69
2023/03/28 03:44:36;;;;;;;9.90;9.40;;;;;;;;;;5113872;28;20043;-69
2023/03/28 03:47:02;;;;;;;9.75;9.25;;;;;;;;;;5113530;28;20016;-70
2023/03/28 03:49:27;;;;;;;9.93;9.43;;;;;;;;;;5101531;28;20474;-69
2023/03/28 03:51:53;;;;;;;10.15;9.65;;;;;;;;;;5114234;28;20376;-70
2023/03/28 03:54:18;;;;;;;10.35;9.77;;;;;;;;;;5115973;28;20007;-68
2023/03/28 03:56:44;;;;;;;10.13;9.63;;;;;;;;;;5116294;28;20016;-68
2023/03/28 03:59:09;;;;;;;10.15;9.63;;;;;;;;;;5114783;28;20047;-68
2023/03/28 04:01:34;;;;;;;10.13;9.63;;;;;;;;;;5113020;28;20065;-68
2023/03/28 04:04:01;;;;;;;10.02;9.52;;;;;;;;;;5100209;28;20052;-68
2023/03/28 04:06:28;;;;;;;9.90;9.40;;;;;;;;;;5102234;28;20023;-69
2023/03/28 04:08:53;;;;;;;9.88;9.38;;;;;;;;;;5113400;28;20058;-68
2023/03/28 04:11:19;;;;;;;9.82;9.32;;;;;;;;;;5113361;28;20051;-70
2023/03/28 04:13:44;;;;;;;10.50;9.90;;;;;;;;;;5113340;28;20425;-68
2023/03/28 04:16:10;;;;;;;10.52;9.93;;;;;;;;;;5107477;28;20146;-69
2023/03/28 04:18:36;;;;;;;9.98;9.48;;;;;;;;;;5113725;28;20024;-69
2023/03/28 04:21:01;;;;;;;9.80;9.30;;;;;;;;;;5112156;28;20098;-68
2023/03/28 04:23:27;;;;;;;9.90;9.40;;;;;;;;;;5124900;27;20061;-69
2023/03/28 04:26:00;;;;;;;10.00;9.50;;;;;;;;;;5122474;27;20019;-69
2023/03/28 04:28:26;;;;;;;10.52;9.93;;;;;;;;;;5099713;28;20069;-68
2023/03/28 04:30:53;;;;;;;10.10;9.60;;;;;;;;;;5100504;28;20016;-69
2023/03/28 04:33:23;;;;;;;10.88;10.27;;;;;;;;;;5112794;28;20028;-69
2023/03/28 04:35:50;;;;;;;9.93;9.43;;;;;;;;;;5112793;28;20023;-68
2023/03/28 04:38:16;;;;;;;10.07;9.57;;;;;;;;;;5093065;28;20436;-68
2023/03/28 04:40:43;;;;;;;10.10;9.60;;;;;;;;;;5112988;28;20065;-68
2023/03/28 04:43:09;;;;;;;10.30;9.80;;;;;;;;;;5112482;28;20027;-69
2023/03/28 04:45:34;;;;;;;9.82;9.32;;;;;;;;;;5094525;28;20094;-69
2023/03/28 04:47:59;;;;;;;10.02;9.52;;;;;;;;;;5111919;28;20085;-69
2023/03/28 04:50:24;;;;;;;10.90;10.30;;;;;;;;;;5112392;28;20023;-69
2023/03/28 04:52:50;;;;;;;9.98;9.48;;;;;;;;;;5112340;28;20017;-69
2023/03/28 04:55:15;;;;;;;11.88;11.18;;;;;;;;;;5098596;28;20605;-67
2023/03/28 04:57:40;;;;;;;10.57;9.98;;;;;;;;;;5096124;28;20487;-67
2023/03/28 05:00:11;;;;;;;9.93;9.43;;;;;;;;;;5107130;28;20035;-68
2023/03/28 05:02:36;;;;;;;10.90;10.30;;;;;;;;;;5107419;27;20513;-66
2023/03/28 05:05:02;;;;;;;11.45;10.75;;;;;;;;;;5109544;28;20035;-68
2023/03/28 05:07:28;;;;;;;11.68;10.98;;;;;;;;;;5109798;28;20031;-69
2023/03/28 05:09:53;;;;;;;11.15;10.45;;;;;;;;;;5109701;28;20051;-69
2023/03/28 05:12:20;;;;;;;13.68;12.68;;;;;;;;;;5108506;27;20109;-66
2023/03/28 05:14:46;;;;;;;11.50;10.80;;;;;;;;;;5090763;28;20536;-67
2023/03/28 05:17:11;;;;;;;10.35;9.85;;;;;;;;;;5093831;28;20032;-68
2023/03/28 05:19:36;;;;;;;10.85;10.25;;;;;;;;;;5112577;28;20051;-67
2023/03/28 05:22:02;;;;;;;11.63;10.93;;;;;;;;;;5112186;27;20019;-67
2023/03/28 05:24:27;;;;;;;10.77;10.18;;;;;;;;;;5097985;28;20027;-68
2023/03/28 05:26:52;;;;;;;11.27;10.60;;;;;;;;;;5112440;28;20030;-67
2023/03/28 05:29:18;;;;;;;11.57;10.88;;;;;;;;;;5101971;28;20367;-67
2023/03/28 05:31:43;;;;;;;11.73;11.02;;;;;;;;;;5103920;28;20028;-64
2023/03/28 05:34:08;;;;;;;10.98;10.38;;;;;;;;;;5093870;28;20023;-64
2023/03/28 05:36:33;;;;;;;11.57;10.88;;;;;;;;;;5108429;28;20011;-64
2023/03/28 05:38:59;;;;;;;11.30;10.65;;;;;;;;;;5111575;28;20022;-66
2023/03/28 05:41:25;;;;;;;11.55;10.85;;;;;;;;;;5111775;28;20089;-65
2023/03/28 05:43:50;;;;;;;11.27;10.57;;;;;;;;;;5111189;28;20058;-66
2023/03/28 05:46:16;;;;;;;10.48;9.88;;;;;;;;;;5108624;28;20050;-65
2023/03/28 05:48:41;;;;;;;10.68;10.07;;;;;;;;;;5110368;27;20036;-64
2023/03/28 05:51:06;;;;;;;10.10;9.60;;;;;;;;;;5109443;28;20028;-65
2023/03/28 05:53:32;;;;;;;11.80;11.07;;;;;;;;;;5095339;28;20035;-65
2023/03/28 05:55:57;;;;;;;10.88;10.27;;;;;;;;;;5102829;28;20438;-69
2023/03/28 05:58:22;;;;;;;11.20;10.52;;;;;;;;;;5110684;28;20122;-69
2023/03/28 06:00:48;;;;;;;10.82;10.23;;;;;;;;;;5089132;28;20011;-69
2023/03/28 06:03:14;;;;;;;11.95;11.23;;;;;;;;;;5106178;28;20036;-69
2023/03/28 06:05:40;;;;;;;12.07;11.32;;;;;;;;;;5103638;28;20023;-69
2023/03/28 06:08:08;;;;;;;10.70;10.10;;;;;;;;;;5110678;28;20023;-68
2023/03/28 06:10:33;;;;;;;13.15;12.25;;;;;;;;;;5105601;27;20390;-65
2023/03/28 06:12:59;;;;;;;10.95;10.35;;;;;;;;;;5097114;28;20016;-67
2023/03/28 06:15:24;;;;;;;11.90;11.10;;;;;;;;;;5110928;28;20102;-66
2023/03/28 06:17:50;;;;;;;12.07;11.27;;;;;;;;;;5109819;28;20047;-65
2023/03/28 06:20:15;;;;;;;13.15;12.25;;;;;;;;;;5103574;28;20035;-68
2023/03/28 06:22:40;;;;;;;11.98;11.23;;;;;;;;;;5107523;28;20029;-66
2023/03/28 06:25:06;;;;;;;12.35;11.55;;;;;;;;;;5105498;28;20245;-67
2023/03/28 06:27:32;;;;;;;13.38;12.43;;;;;;;;;;5086777;28;20034;-66
2023/03/28 06:29:58;;;;;;;13.65;12.65;;;;;;;;;;5105133;28;20023;-63
2023/03/28 06:32:24;;;;;;;12.93;12.02;;;;;;;;;;5103963;28;20027;-67
2023/03/28 06:34:49;;;;;;;11.90;11.20;;;;;;;;;;5110231;28;20053;-63
2023/03/28 06:37:14;;;;;;;12.23;11.43;;;;;;;;;;5107541;28;20034;-64
2023/03/28 06:39:40;;;;;;;11.45;10.75;;;;;;;;;;5113046;28;20034;-64
2023/03/28 06:42:05;;;;;;;12.68;11.82;;;;;;;;;;5105503;28;20039;-66
2023/03/28 06:44:31;;;;;;;10.50;9.90;;;;;;;;;;5103933;28;20020;-66
2023/03/28 06:46:56;;;;;;;10.73;10.13;;;;;;;;;;5117597;28;20026;-66
2023/03/28 06:49:21;;;;;;;11.50;10.80;;;;;;;;;;5103222;28;20018;-66
2023/03/28 06:51:46;;;;;;;11.63;10.93;;;;;;;;;;5080445;28;20019;-69
2023/03/28 06:54:13;;;;;;;13.15;12.25;;;;;;;;;;5095041;28;20024;-70
2023/03/28 06:56:38;;;;;;;11.98;11.20;;;;;;;;;;5102489;28;20058;-69
2023/03/28 06:59:03;;;;;;;11.50;10.80;;;;;;;;;;5085293;28;20445;-70
2023/03/28 07:01:29;;;;;;;11.13;10.45;;;;;;;;;;5109000;28;20023;-71
2023/03/28 07:03:58;;;;;;;12.50;11.70;;;;;;;;;;5110543;28;20061;-68
2023/03/28 07:06:24;;;;;;;12.57;11.77;;;;;;;;;;5101855;28;20027;-66
2023/03/28 07:08:49;;;;;;;12.57;11.77;;;;;;;;;;5100848;28;20393;-67
2023/03/28 07:11:15;;;;;;;12.98;12.07;;;;;;;;;;5109371;27;20107;-71
2023/03/28 07:13:40;;;;;;;12.38;11.57;;;;;;;;;;5097163;27;20023;-68
2023/03/28 07:16:07;;;;;;;12.77;11.90;;;;;;;;;;5102873;27;20024;-69
2023/03/28 07:18:33;;;;;;;11.65;10.95;;;;;;;;;;5117554;27;20019;-69
2023/03/28 07:21:04;;;;;;;13.05;12.15;;;;;;;;;;5114221;27;20034;-67
2023/03/28 07:23:29;;;;;;;12.75;11.85;;;;;;;;;;5107123;27;20110;-68
2023/03/28 07:25:54;;;;;;;13.25;12.35;;;;;;;;;;5119162;27;20102;-64
2023/03/28 07:28:20;;;;;;;14.00;13.00;;;;;;;;;;5110762;27;20027;-69
2023/03/28 07:30:45;;;;;;;12.95;12.05;;;;;;;;;;5107871;27;20027;-67
2023/03/28 07:33:10;;;;;;;13.23;12.32;;;;;;;;;;5112315;27;20039;-67
2023/03/28 07:35:37;;;;;;;12.98;12.07;;;;;;;;;;5110755;27;20028;-66
2023/03/28 07:38:03;;;;;;;11.73;11.02;;;;;;;;;;5105754;27;20024;-65
2023/03/28 07:40:28;;;;;;;10.98;10.38;;;;;;;;;;5112001;27;20106;-66
2023/03/28 07:42:53;;;;;;;11.55;10.85;;;;;;;;;;5110707;28;20531;-69
2023/03/28 07:45:19;;;;;;;11.10;10.50;;;;;;;;;;5112427;27;20466;-71
2023/03/28 07:47:44;;;;;;;11.40;10.70;;;;;;;;;;5116495;27;20054;-66
2023/03/28 07:50:09;;;;;;;11.45;10.75;;;;;;;;;;5111312;27;20125;-68
2023/03/28 07:52:35;;;;;;;11.32;10.63;;;;;;;;;;5112846;27;20027;-67
2023/03/28 07:55:00;;;;;;;14.27;13.23;;;;;;;;;;5109468;28;20023;-66
2023/03/28 07:57:25;;;;;;;11.65;10.93;;;;;;;;;;5112198;27;20023;-65
2023/03/28 07:59:51;;;;;;;11.32;10.63;;;;;;;;;;5096338;28;20052;-66
2023/03/28 08:02:16;;;;;;;12.50;11.65;;;;;;;;;;5102280;27;20482;-65
2023/03/28 08:04:41;;;;;;;12.52;11.73;;;;;;;;;;5104750;27;20445;-65
2023/03/28 08:07:07;;;;;;;13.10;12.20;;;;;;;;;;5108202;27;20755;-70
2023/03/28 08:09:32;;;;;;;11.48;10.77;;;;;;;;;;5103373;27;20030;-66
2023/03/28 08:11:58;;;;;;;10.95;10.35;;;;;;;;;;5103034;27;20479;-68
2023/03/28 08:14:23;;;;;;;11.35;10.65;;;;;;;;;;5107299;27;20025;-64
2023/03/28 08:16:49;;;;;;;12.77;11.98;;;;;;;;;;5102315;27;20020;-67
2023/03/28 08:19:14;;;;;;;11.45;10.75;;;;;;;;;;5086656;28;20084;-66
2023/03/28 08:21:40;;;;;;;11.77;11.07;;;;;;;;;;5103290;27;20039;-66
2023/03/28 08:24:06;;;;;;;11.70;11.00;;;;;;;;;;5106870;27;20020;-67
2023/03/28 08:26:32;;;;;;;11.63;10.93;;;;;;;;;;5111284;27;20111;-65
2023/03/28 08:29:00;;;;;;;12.38;11.57;;;;;;;;;;5104466;27;20364;-66
2023/03/28 08:31:27;;;;;;;11.43;10.73;;;;;;;;;;5097344;27;20089;-71
2023/03/28 08:33:53;;;;;;;10.65;10.05;;;;;;;;;;5120227;27;20377;-71
2023/03/28 08:36:20;;;;;;;11.75;11.05;;;;;;;;;;5101510;27;20551;-72
2023/03/28 08:38:46;;;;;;;11.73;11.02;;;;;;;;;;5096160;27;20494;-70
2023/03/28 08:41:23;;;;;;;11.85;11.15;;;;;;;;;;5115717;27;20080;-72
2023/03/28 08:43:57;;;;;;;12.07;11.35;;;;;;;;;;5099482;27;20106;-71
2023/03/28 08:46:23;;;;;;;10.73;10.13;;;;;;;;;;5118327;27;20213;-69
2023/03/28 08:48:49;;;;;;;11.55;10.85;;;;;;;;;;5117797;27;20054;-69
2023/03/28 08:51:14;;;;;;;12.38;11.57;;;;;;;;;;5110474;27;20142;-71
2023/03/28 08:53:44;;;;;;;12.00;11.27;;;;;;;;;;5115171;27;20020;-70
2023/03/28 08:56:12;;;;;;;11.38;10.68;;;;;;;;;;5108382;28;20020;-71
2023/03/28 08:58:46;;;;;;;11.95;11.18;;;;;;;;;;5107921;28;20048;-70
2023/03/28 09:01:12;;;;;;;11.40;10.70;;;;;;;;;;5093849;27;20165;-71
2023/03/28 09:03:37;;;;;;;10.00;9.50;;;;;;;;;;5105762;27;20467;-70
2023/03/28 09:06:19;;;;;;;10.35;9.80;;;;;;;;;;5102433;28;20015;-70
2023/03/28 09:08:50;;;;;;;10.05;9.55;;;;;;;;;;5100036;27;20112;-68
2023/03/28 09:11:22;;;;;;;10.18;9.68;;;;;;;;;;5112155;27;20580;-64
2023/03/28 09:13:47;;;;;;;9.80;9.30;;;;;;;;;;5105498;27;20011;-66
2023/03/28 09:16:23;;;;;;;9.48;8.98;;;;;;;;;;5113270;27;20031;-66
2023/03/28 09:18:50;;;;;;;11.85;11.10;;;;;;;;;;5104522;28;20015;-66
2023/03/28 09:21:25;;;;;;;10.50;9.90;;;;;;;;;;5126413;27;20121;-66
2023/03/28 09:24:09;;;;;;;9.85;9.35;;;;;;;;;;5100980;27;20030;-69
2023/03/28 09:26:38;;;;;;;11.15;10.48;;;;;;;;;;5105978;27;20033;-70
2023/03/28 09:29:09;;;;;;;12.00;11.27;;;;;;;;;;5101179;27;20107;-67
2023/03/28 09:31:38;;;;;;;11.45;10.75;;;;;;;;;;5078750;28;20407;-71
2023/03/28 09:34:05;;;;;;;11.00;10.40;;;;;;;;;;5104416;27;20073;-71
2023/03/28 09:36:32;;;;;;;11.32;10.63;;;;;;;;;;5093044;28;20051;-71
2023/03/28 09:39:04;;;;;;;12.30;11.50;;;;;;;;;;5108981;27;20011;-69
2023/03/28 09:41:35;;;;;;;11.25;10.57;;;;;;;;;;5098315;27;20562;-69
2023/03/28 09:44:02;;;;;;;10.85;10.25;;;;;;;;;;5100704;27;20483;-68
2023/03/28 09:46:40;;;;;;;11.48;10.77;;;;;;;;;;5101897;27;20374;-66
2023/03/28 09:49:09;;;;;;;11.48;10.77;;;;;;;;;;5090780;28;20027;-71
2023/03/28 09:51:36;;;;;;;10.85;10.25;;;;;;;;;;5106812;27;20047;-66
2023/03/28 09:54:06;;;;;;;11.73;11.02;;;;;;;;;;5106738;27;20035;-69
2023/03/28 09:56:39;;;;;;;11.52;10.82;;;;;;;;;;5103000;27;20023;-67
2023/03/28 09:59:09;;;;;;;11.82;11.13;;;;;;;;;;5100331;28;20380;-67
2023/03/28 10:01:38;;;;;;;11.75;11.05;;;;;;;;;;5095582;28;20027;-68
2023/03/28 10:04:08;;;;;;;11.63;10.93;;;;;;;;;;5102097;28;20504;-68
2023/03/28 10:06:36;;;;;;;12.93;12.10;;;;;;;;;;5093688;27;20028;-68
2023/03/28 10:09:14;;;;;;;11.80;11.10;;;;;;;;;;5097533;28;20543;-71
2023/03/28 10:12:05;;;;;;;11.60;10.90;;;;;;;;;;5089535;28;20054;-70
2023/03/28 10:14:31;;;;;;;12.40;11.63;;;;;;;;;;5102393;28;20038;-72
2023/03/28 10:16:59;;;;;;;10.48;9.88;;;;;;;;;;5097390;28;20371;-72
2023/03/28 10:19:25;;;;;;;11.32;10.63;;;;;;;;;;5106875;28;20035;-70
2023/03/28 10:21:50;;;;;;;12.35;11.55;;;;;;;;;;5093510;28;20414;-70
2023/03/28 10:24:19;;;;;;;12.43;11.63;;;;;;;;;;5112914;28;20027;-70
2023/03/28 10:26:44;;;;;;;12.60;11.80;;;;;;;;;;5107283;28;20081;-70
2023/03/28 10:29:12;;;;;;;11.30;10.65;;;;;;;;;;5106135;28;20024;-71
2023/03/28 10:31:38;;;;;;;11.15;10.55;;;;;;;;;;5104700;28;20028;-68
2023/03/28 10:34:03;;;;;;;12.13;11.40;;;;;;;;;;5101032;28;20144;-69
2023/03/28 10:36:31;;;;;;;11.77;11.07;;;;;;;;;;5108009;28;20095;-69
2023/03/28 10:38:57;;;;;;;11.18;10.52;;;;;;;;;;5095840;28;20038;-70
2023/03/28 10:41:23;;;;;;;11.65;10.95;;;;;;;;;;5117803;28;20012;-69
2023/03/28 10:43:49;;;;;;;11.15;10.55;;;;;;;;;;5099468;28;20121;-68
2023/03/28 10:46:16;;;;;;;10.93;10.32;;;;;;;;;;5111146;27;20074;-69
2023/03/28 10:48:46;;;;;;;11.57;10.88;;;;;;;;;;5103912;28;20051;-70
2023/03/28 10:51:16;;;;;;;11.25;10.60;;;;;;;;;;5104249;27;20371;-69
2023/03/28 10:53:41;;;;;;;11.20;10.57;;;;;;;;;;5093646;28;20051;-68
2023/03/28 10:56:17;;;;;;;12.45;11.65;;;;;;;;;;5111156;27;20062;-68
2023/03/28 10:58:48;;;;;;;11.45;10.75;;;;;;;;;;5121665;27;20027;-72
2023/03/28 11:01:18;;;;;;;11.43;10.73;;;;;;;;;;5105944;27;20402;-68
2023/03/28 11:03:49;;;;;;;10.00;9.50;;;;;;;;;;5108774;27;20436;-68
2023/03/28 11:06:38;;;;;;;11.13;10.48;;;;;;;;;;5125383;27;20387;-70
2023/03/28 11:09:21;;;;;;;11.07;10.45;;;;;;;;;;5108784;27;20490;-70
2023/03/28 11:11:51;;;;;;;11.48;10.77;;;;;;;;;;5107472;27;20024;-71
2023/03/28 11:14:26;;;;;;;10.60;10.00;;;;;;;;;;5110859;27;20042;-70
2023/03/28 11:17:03;;;;;;;11.05;10.45;;;;;;;;;;5106352;27;20024;-71
2023/03/28 11:19:37;;;;;;;11.15;10.55;;;;;;;;;;5101855;28;20031;-70
2023/03/28 11:22:08;;;;;;;11.68;10.98;;;;;;;;;;5121027;27;20011;-70
2023/03/28 11:24:34;;;;;;;11.52;10.82;;;;;;;;;;5110368;27;20023;-68
2023/03/28 11:27:04;;;;;;;11.48;10.77;;;;;;;;;;5102658;28;20024;-71
2023/03/28 11:29:45;;;;;;;11.30;10.65;;;;;;;;;;5099984;28;20503;-69
2023/03/28 11:32:17;;;;;;;12.45;11.65;;;;;;;;;;5109848;28;20015;-69
2023/03/28 11:34:55;;;;;;;11.88;11.18;;;;;;;;;;5109031;27;20023;-65
2023/03/28 11:37:24;;;;;;;12.40;11.63;;;;;;;;;;5104323;28;20027;-66
2023/03/28 11:39:53;;;;;;;11.70;11.00;;;;;;;;;;5106104;27;20024;-71
2023/03/28 11:42:30;;;;;;;10.55;9.95;;;;;;;;;;5101997;27;20024;-70
2023/03/28 11:45:07;;;;;;;11.98;11.27;;;;;;;;;;5105377;27;20084;-67
2023/03/28 11:47:38;;;;;;;12.30;11.52;;;;;;;;;;5095260;28;20130;-69
2023/03/28 11:50:13;;;;;;;12.45;11.65;;;;;;;;;;5105172;27;20106;-67
2023/03/28 11:53:05;;;;;;;11.10;10.50;;;;;;;;;;5102407;27;20077;-71
2023/03/28 11:55:36;;;;;;;11.35;10.68;;;;;;;;;;5092236;28;20506;-68
2023/03/28 11:58:07;;;;;;;11.25;10.65;;;;;;;;;;5100417;27;20024;-71
2023/03/28 12:00:36;;;;;;;12.80;12.00;;;;;;;;;;5091044;28;20012;-70
2023/03/28 12:03:19;;;;;;;11.88;11.18;;;;;;;;;;5107247;28;20205;-70
2023/03/28 12:05:51;;;;;;;10.90;10.27;;;;;;;;;;5104177;28;20490;-69
2023/03/28 12:08:20;;;;;;;12.05;11.35;;;;;;;;;;5098927;27;20085;-70
2023/03/28 12:10:50;;;;;;;11.80;11.10;;;;;;;;;;5110736;27;20072;-70
2023/03/28 12:13:36;;;;;;;11.93;11.23;;;;;;;;;;5097695;27;20059;-71
2023/03/28 12:16:01;;;;;;;11.57;10.88;;;;;;;;;;5100191;27;20059;-72
2023/03/28 12:18:29;;;;;;;11.73;11.02;;;;;;;;;;5114583;27;20058;-71
2023/03/28 12:20:58;;;;;;;12.30;11.55;;;;;;;;;;5103036;27;20056;-69
2023/03/28 12:23:30;;;;;;;11.50;10.82;;;;;;;;;;5105192;27;20036;-69
2023/03/28 12:26:03;;;;;;;11.55;10.85;;;;;;;;;;5103163;27;20080;-71
2023/03/28 12:28:32;;;;;;;11.85;11.15;;;;;;;;;;5097972;27;20055;-71
2023/03/28 12:30:58;;;;;;;11.20;10.60;;;;;;;;;;5088528;28;20380;-66
2023/03/28 12:33:36;;;;;;;11.57;10.90;;;;;;;;;;5103267;28;20030;-69
2023/03/28 12:36:16;;;;;;;13.65;12.75;;;;;;;;;;5096599;27;20618;-64
2023/03/28 12:38:45;;;;;;;12.95;12.15;;;;;;;;;;5079110;28;20080;-67
2023/03/28 12:41:14;;;;;;;13.07;12.27;;;;;;;;;;5112954;27;20027;-66
2023/03/28 12:44:08;;;;;;;12.40;11.68;;;;;;;;;;5117922;27;20024;-66
2023/03/28 12:46:37;;;;;;;12.68;11.88;;;;;;;;;;5101972;27;20035;-65
2023/03/28 12:49:28;;;;;;;12.90;12.10;;;;;;;;;;5114510;27;20077;-68
2023/03/28 12:51:55;;;;;;;11.85;11.15;;;;;;;;;;5094778;27;20036;-68
2023/03/28 12:54:26;;;;;;;12.57;11.77;;;;;;;;;;5105993;27;20106;-67
2023/03/28 12:56:58;;;;;;;12.73;11.93;;;;;;;;;;5116014;27;20466;-68
2023/03/28 12:59:35;;;;;;;12.98;12.18;;;;;;;;;;5103832;27;20052;-70
2023/03/28 13:02:03;;;;;;;11.75;11.05;;;;;;;;;;5107674;27;20092;-67
2023/03/28 13:04:37;;;;;;;12.27;11.57;;;;;;;;;;5109746;27;20024;-67
2023/03/28 13:07:08;;;;;;;11.98;11.27;;;;;;;;;;5105980;27;20028;-66
2023/03/28 13:09:43;;;;;;;12.50;11.70;;;;;;;;;;5094478;27;20502;-68
2023/03/28 13:12:19;;;;;;;12.23;11.50;;;;;;;;;;5099804;27;20055;-71
2023/03/28 13:14:55;;;;;;;11.88;11.18;;;;;;;;;;5102353;27;20526;-67
2023/03/28 13:17:22;;;;;;;12.63;11.82;;;;;;;;;;5098444;27;20122;-69
2023/03/28 13:19:55;;;;;;;11.32;10.65;;;;;;;;;;5104021;27;20026;-69
2023/03/28 13:22:28;;;;;;;13.00;12.20;;;;;;;;;;5082667;28;20019;-72
2023/03/28 13:25:14;;;;;;;12.57;11.77;;;;;;;;;;5096620;27;20056;-69
2023/03/28 13:27:39;;;;;;;11.95;11.25;;;;;;;;;;5097052;27;20024;-62
2023/03/28 13:30:13;;;;;;;10.82;10.23;;;;;;;;;;5111161;27;20034;-63
2023/03/28 13:32:43;;;;;;;10.77;10.18;;;;;;;;;;5107505;27;20047;-63
2023/03/28 13:35:28;;;;;;;10.90;10.30;;;;;;;;;;5096501;28;20028;-66
2023/03/28 13:37:54;;;;;;;10.50;9.93;;;;;;;;;;5108847;28;20027;-66
2023/03/28 13:40:38;;;;;;;10.38;9.88;;;;;;;;;;5111463;27;20111;-66
2023/03/28 13:43:20;;;;;;;9.90;9.40;;;;;;;;;;5101435;28;20428;-67
2023/03/28 13:45:45;;;;;;;10.07;9.57;;;;;;;;;;5111474;28;20047;-66
2023/03/28 13:48:11;;;;;;;10.50;9.90;;;;;;;;;;5093971;28;20070;-67
2023/03/28 13:50:37;;;;;;;9.93;9.43;;;;;;;;;;5106804;28;20046;-66
2023/03/28 13:53:02;;;;;;;9.93;9.43;;;;;;;;;;5102836;28;20466;-66
2023/03/28 13:55:27;;;;;;;9.60;9.10;;;;;;;;;;5103298;28;20020;-66
2023/03/28 13:57:53;;;;;;;9.38;8.93;;;;;;;;;;5097278;28;20043;-66
2023/03/28 14:00:24;;;;;;;11.77;11.07;;;;;;;;;;5099536;28;20139;-65
2023/03/28 14:02:51;;;;;;;11.13;10.52;;;;;;;;;;5109313;27;20011;-63
2023/03/28 14:05:24;;;;;;;10.70;10.10;;;;;;;;;;5097226;28;20019;-64
2023/03/28 14:07:50;;;;;;;10.60;10.00;;;;;;;;;;5093142;28;20023;-64
2023/03/28 14:10:20;;;;;;;11.02;10.43;;;;;;;;;;5105250;27;20503;-64
2023/03/28 14:12:45;;;;;;;10.50;9.90;;;;;;;;;;5106081;28;20084;-65
2023/03/28 14:15:15;;;;;;;11.05;10.43;;;;;;;;;;5094955;28;20499;-67
2023/03/28 14:17:40;;;;;;;11.82;11.13;;;;;;;;;;5101201;28;20119;-67
2023/03/28 14:20:07;;;;;;;10.85;10.25;;;;;;;;;;5110302;28;20480;-67
2023/03/28 14:22:33;;;;;;;10.90;10.30;;;;;;;;;;5096329;28;20024;-67
2023/03/28 14:24:59;;;;;;;10.38;9.85;;;;;;;;;;5118541;27;20094;-67
2023/03/28 14:27:36;;;;;;;10.65;10.05;;;;;;;;;;5118288;28;20110;-66
2023/03/28 14:30:03;;;;;;;10.18;9.68;;;;;;;;;;5118185;28;20689;-66
2023/03/28 14:32:30;;;;;;;10.45;9.85;;;;;;;;;;5109657;28;20108;-66